Time;durP1;ratioP1;P1;durP2;ratioP2;P2;SDS_P1;SDS_P2;PMS_P1;PMS_P2;Temp;Humidity;BMP_temperature;BMP_pressure;BME280_temperature;BME280_humidity;BME280_pressure;Samples;Min_cycle;Max_cycle;Signal;HPM_P1;HPM_P2
2024/01/22 00:00:09;;;;;;;19.70;14.70;;;;;;;5.74;53.72;103656.04;106782;1256;25670;-53
2024/01/22 00:02:40;;;;;;;17.80;14.50;;;;;;;5.77;53.77;103661.48;106745;1261;25347;-51
2024/01/22 00:05:09;;;;;;;18.80;13.90;;;;;;;5.78;53.86;103666.91;106788;1257;25571;-51
2024/01/22 00:07:36;;;;;;;19.10;14.60;;;;;;;5.81;53.67;103662.38;106669;1256;22648;-51
2024/01/22 00:10:05;;;;;;;20.90;15.70;;;;;;;5.82;53.72;103662.58;106850;1259;25369;-51
2024/01/22 00:12:32;;;;;;;20.90;14.70;;;;;;;5.84;53.67;103664.06;106679;1260;22523;-51
2024/01/22 00:14:59;;;;;;;20.10;15.40;;;;;;;5.84;53.66;103658.02;106817;1261;25427;-51
2024/01/22 00:17:27;;;;;;;20.70;14.70;;;;;;;5.85;53.57;103665.35;106732;1260;25514;-51
2024/01/22 00:19:54;;;;;;;20.50;16.20;;;;;;;5.88;53.67;103667.02;106749;1260;25376;-52
2024/01/22 00:22:22;;;;;;;18.50;13.90;;;;;;;5.88;53.63;103671.52;106650;1266;25363;-51
2024/01/22 00:24:49;;;;;;;19.50;15.30;;;;;;;5.89;53.60;103668.77;106798;1257;25373;-50
2024/01/22 00:27:16;;;;;;;19.30;15.00;;;;;;;5.90;53.70;103662.45;106869;1259;25315;-52
2024/01/22 00:29:43;;;;;;;21.20;15.60;;;;;;;5.92;53.66;103654.78;106588;1268;25501;-51
2024/01/22 00:32:11;;;;;;;19.10;15.20;;;;;;;5.93;53.46;103653.62;106310;1267;25475;-50
2024/01/22 00:34:38;;;;;;;16.90;14.10;;;;;;;5.92;53.53;103650.69;106875;1256;22637;-51
2024/01/22 00:37:06;;;;;;;18.50;14.90;;;;;;;5.93;53.58;103650.52;106610;1263;25402;-52
2024/01/22 00:39:33;;;;;;;18.50;15.10;;;;;;;5.93;53.61;103655.17;106520;1260;25376;-52
2024/01/22 00:42:00;;;;;;;18.80;14.40;;;;;;;5.94;53.65;103652.98;106503;1259;25402;-52
2024/01/22 00:44:27;;;;;;;17.90;14.60;;;;;;;5.94;53.70;103655.40;105809;1260;1003247;-52
2024/01/22 00:46:54;;;;;;;18.10;14.60;;;;;;;5.97;53.61;103655.35;106585;1259;23697;-52
2024/01/22 00:49:22;;;;;;;16.10;14.00;;;;;;;6.01;53.47;103654.49;106527;1261;24364;-50
2024/01/22 00:51:49;;;;;;;20.70;15.50;;;;;;;6.01;53.36;103658.80;106361;1263;25441;-51
2024/01/22 00:54:16;;;;;;;19.10;15.40;;;;;;;6.00;53.41;103660.64;106190;1259;24374;-51
2024/01/22 00:56:43;;;;;;;20.60;16.10;;;;;;;5.98;53.47;103658.67;106279;1264;23859;-51
2024/01/22 00:59:11;;;;;;;22.30;16.50;;;;;;;5.96;53.56;103662.20;106252;1264;25436;-51
2024/01/22 01:01:39;;;;;;;22.90;16.60;;;;;;;5.98;53.66;103661.41;105734;1264;1002779;-51
2024/01/22 01:04:06;;;;;;;19.20;14.60;;;;;;;6.01;53.52;103658.98;106408;1257;22530;-51
2024/01/22 01:06:33;;;;;;;19.40;15.50;;;;;;;6.01;53.64;103662.79;106556;1260;25409;-51
2024/01/22 01:09:00;;;;;;;19.90;15.60;;;;;;;6.01;53.60;103659.00;106681;1260;23860;-51
2024/01/22 01:11:27;;;;;;;19.20;15.50;;;;;;;6.00;53.50;103665.30;106051;1256;1002980;-51
2024/01/22 01:13:54;;;;;;;21.10;15.10;;;;;;;5.97;53.59;103663.47;106853;1272;25335;-52
2024/01/22 01:16:21;;;;;;;16.90;14.50;;;;;;;5.94;53.77;103660.39;106836;1259;25435;-51
2024/01/22 01:18:48;;;;;;;19.40;15.20;;;;;;;5.95;53.79;103660.10;106810;1260;25365;-51
2024/01/22 01:21:17;;;;;;;19.30;15.70;;;;;;;5.97;53.95;103657.24;106874;1259;25353;-51
2024/01/22 01:23:44;;;;;;;19.80;14.90;;;;;;;5.99;53.84;103658.71;105986;1262;1002849;-52
2024/01/22 01:26:11;;;;;;;18.80;14.60;;;;;;;5.98;53.81;103657.80;106675;1259;25480;-52
2024/01/22 01:28:39;;;;;;;22.20;15.80;;;;;;;5.97;53.83;103659.13;106462;1263;25338;-51
2024/01/22 01:31:06;;;;;;;19.60;15.10;;;;;;;5.97;53.89;103657.94;106875;1260;25421;-51
2024/01/22 01:33:34;;;;;;;19.50;15.60;;;;;;;5.97;53.85;103655.71;106014;1261;1003104;-51
2024/01/22 01:36:01;;;;;;;20.90;16.00;;;;;;;5.96;53.80;103660.67;106883;1256;22558;-51
2024/01/22 01:38:29;;;;;;;20.50;16.00;;;;;;;5.97;53.94;103663.94;106748;1259;25357;-51
2024/01/22 01:40:56;;;;;;;20.70;16.10;;;;;;;5.97;53.98;103662.77;106750;1256;25408;-51
2024/01/22 01:43:23;;;;;;;19.90;14.90;;;;;;;6.02;54.02;103664.01;106461;1273;25348;-51
2024/01/22 01:45:50;;;;;;;21.20;16.50;;;;;;;6.06;53.92;103661.76;105567;1275;1003792;-51
2024/01/22 01:48:17;;;;;;;23.30;16.60;;;;;;;6.06;53.88;103661.41;106623;1266;25523;-51
2024/01/22 01:50:45;;;;;;;21.80;15.90;;;;;;;6.06;53.83;103664.86;105870;1260;1003242;-51
2024/01/22 01:53:14;;;;;;;19.70;15.10;;;;;;;6.07;53.90;103666.33;106650;1256;24213;-51
2024/01/22 01:55:41;;;;;;;21.70;16.50;;;;;;;6.08;53.93;103668.94;106741;1257;24415;-52
2024/01/22 01:58:09;;;;;;;20.30;14.50;;;;;;;6.10;54.00;103672.65;106730;1264;25335;-51
2024/01/22 02:00:36;;;;;;;19.20;15.00;;;;;;;6.12;53.93;103670.13;106009;1272;1003523;-52
2024/01/22 02:03:04;;;;;;;20.00;14.70;;;;;;;6.07;53.92;103671.48;106663;1259;25350;-51
2024/01/22 02:05:31;;;;;;;22.10;15.90;;;;;;;6.06;54.06;103672.27;106065;1264;1002981;-51
2024/01/22 02:07:59;;;;;;;21.40;16.00;;;;;;;6.06;54.05;103670.57;106539;1278;25415;-52
2024/01/22 02:10:28;;;;;;;20.20;15.30;;;;;;;6.05;54.11;103668.14;106038;1256;1003026;-51
2024/01/22 02:12:55;;;;;;;20.30;16.00;;;;;;;6.05;54.11;103674.49;106742;1272;25344;-52
2024/01/22 02:15:22;;;;;;;20.30;15.70;;;;;;;6.05;54.24;103669.13;106825;1262;25233;-52
2024/01/22 02:17:49;;;;;;;20.50;15.70;;;;;;;6.05;54.36;103665.35;106713;1262;24241;-51
2024/01/22 02:20:16;;;;;;;19.50;16.10;;;;;;;6.05;54.37;103659.16;106814;1271;25363;-51
2024/01/22 02:22:43;;;;;;;23.00;16.00;;;;;;;6.04;54.45;103661.02;106688;1260;25412;-52
2024/01/22 02:25:10;;;;;;;23.70;17.30;;;;;;;6.02;54.53;103659.89;105939;1272;1003445;-53
2024/01/22 02:27:37;;;;;;;22.20;16.70;;;;;;;6.01;54.72;103659.66;106768;1265;25291;-51
2024/01/22 02:30:04;;;;;;;22.70;17.10;;;;;;;6.02;54.69;103659.05;106771;1256;25415;-52
2024/01/22 02:32:32;;;;;;;24.40;17.60;;;;;;;6.03;54.65;103656.16;105553;1265;1003265;-51
2024/01/22 02:35:00;;;;;;;27.50;19.20;;;;;;;6.00;54.62;103657.70;106733;1259;24361;-51
2024/01/22 02:37:27;;;;;;;23.10;18.10;;;;;;;5.97;54.63;103660.16;106779;1261;25401;-51
2024/01/22 02:39:54;;;;;;;26.90;19.30;;;;;;;5.94;54.62;103665.03;106743;1260;25418;-51
2024/01/22 02:42:21;;;;;;;24.30;17.80;;;;;;;5.92;54.69;103669.94;106102;1256;1002942;-52
2024/01/22 02:44:48;;;;;;;22.40;17.50;;;;;;;5.90;54.67;103673.31;106797;1267;25359;-51
2024/01/22 02:47:15;;;;;;;24.40;18.60;;;;;;;5.89;54.68;103679.11;105938;1256;1003267;-51
2024/01/22 02:49:42;;;;;;;24.20;18.00;;;;;;;5.87;54.73;103677.47;106726;1261;25338;-51
2024/01/22 02:52:10;;;;;;;25.50;18.70;;;;;;;5.84;54.71;103679.45;106039;1257;1003092;-51
2024/01/22 02:54:37;;;;;;;27.10;19.80;;;;;;;5.82;54.74;103679.46;106769;1259;25338;-51
2024/01/22 02:57:04;;;;;;;26.50;19.80;;;;;;;5.79;54.79;103681.92;106755;1259;25363;-52
2024/01/22 02:59:31;;;;;;;27.50;19.40;;;;;;;5.77;54.84;103683.21;106157;1260;1003334;-52
2024/01/22 03:01:58;;;;;;;22.80;18.00;;;;;;;5.76;54.85;103688.69;106763;1256;25363;-51
2024/01/22 03:04:26;;;;;;;23.60;17.80;;;;;;;5.75;54.90;103690.35;106683;1260;22533;-51
2024/01/22 03:06:53;;;;;;;26.70;19.70;;;;;;;5.75;54.92;103693.26;106069;1256;1002971;-51
2024/01/22 03:09:20;;;;;;;23.20;17.70;;;;;;;5.75;54.99;103693.78;106716;1259;25384;-52
2024/01/22 03:11:48;;;;;;;22.70;17.50;;;;;;;5.76;54.90;103699.17;106444;1265;25335;-51
2024/01/22 03:14:14;;;;;;;23.70;18.70;;;;;;;5.77;54.86;103701.96;106788;1260;25488;-51
2024/01/22 03:16:41;;;;;;;22.50;16.80;;;;;;;5.76;54.91;103706.95;106782;1261;25335;-52
2024/01/22 03:19:08;;;;;;;24.80;18.10;;;;;;;5.76;54.88;103709.02;105894;1262;1003233;-51
2024/01/22 03:21:36;;;;;;;23.20;18.40;;;;;;;5.77;54.98;103710.27;106786;1259;25434;-51
2024/01/22 03:24:03;;;;;;;23.10;17.60;;;;;;;5.78;54.89;103711.66;106737;1265;25357;-53
2024/01/22 03:26:30;;;;;;;24.40;18.90;;;;;;;5.78;54.83;103716.82;106840;1257;25418;-51
2024/01/22 03:28:57;;;;;;;24.40;18.50;;;;;;;5.79;54.95;103713.61;105651;1264;1003777;-51
2024/01/22 03:31:27;;;;;;;23.30;18.30;;;;;;;5.80;54.74;103716.05;106549;1259;25374;-51
2024/01/22 03:33:54;;;;;;;26.40;17.50;;;;;;;5.80;54.76;103719.69;106793;1259;25376;-51
2024/01/22 03:36:22;;;;;;;23.10;18.50;;;;;;;5.79;54.64;103719.31;106126;1267;1003136;-51
2024/01/22 03:38:50;;;;;;;24.80;18.40;;;;;;;5.80;54.77;103722.98;106703;1259;23427;-51
2024/01/22 03:41:18;;;;;;;28.20;19.50;;;;;;;5.81;54.64;103724.91;106037;1259;1003683;-51
2024/01/22 03:43:45;;;;;;;26.80;19.10;;;;;;;5.82;54.71;103724.77;105993;1260;1003597;-51
2024/01/22 03:46:13;;;;;;;24.40;20.00;;;;;;;5.82;54.61;103725.98;106843;1261;25338;-52
2024/01/22 03:48:40;;;;;;;28.80;20.30;;;;;;;5.81;54.54;103729.55;106571;1275;25488;-52
2024/01/22 03:51:08;;;;;;;27.20;20.20;;;;;;;5.79;54.62;103732.39;106705;1259;22547;-51
2024/01/22 03:53:36;;;;;;;25.50;19.00;;;;;;;5.78;54.72;103736.66;106103;1259;1003094;-52
2024/01/22 03:56:05;;;;;;;27.70;19.40;;;;;;;5.79;54.68;103738.40;106747;1256;22556;-51
2024/01/22 03:58:33;;;;;;;29.80;19.40;;;;;;;5.80;54.86;103736.73;106812;1259;22527;-51
2024/01/22 04:01:01;;;;;;;31.50;21.20;;;;;;;5.83;54.76;103739.10;105880;1272;1003274;-52
2024/01/22 04:03:28;;;;;;;25.20;19.50;;;;;;;5.83;54.76;103742.59;106824;1256;22675;-51
2024/01/22 04:05:57;;;;;;;28.30;20.40;;;;;;;5.84;54.71;103740.90;106799;1260;25366;-51
2024/01/22 04:08:24;;;;;;;26.20;19.20;;;;;;;5.83;54.64;103738.62;106652;1259;25437;-51
2024/01/22 04:10:51;;;;;;;26.00;19.70;;;;;;;5.83;54.71;103741.39;106688;1259;25357;-51
2024/01/22 04:13:21;;;;;;;24.70;19.40;;;;;;;5.83;54.52;103743.97;106764;1259;25402;-51
2024/01/22 04:15:59;;;;;;;28.20;19.40;;;;;;;5.80;54.37;103742.95;106820;1257;25395;-52
2024/01/22 04:18:26;;;;;;;25.80;19.40;;;;;;;5.78;54.37;103743.02;106864;1256;25376;-51
2024/01/22 04:20:54;;;;;;;23.60;18.50;;;;;;;5.76;54.44;103743.97;106863;1256;25357;-51
2024/01/22 04:23:21;;;;;;;25.10;18.50;;;;;;;5.75;54.36;103747.89;106005;1272;566387;-51
2024/01/22 04:25:48;;;;;;;24.30;18.70;;;;;;;5.75;54.29;103749.24;106068;1259;1002901;-52
2024/01/22 04:28:16;;;;;;;24.90;19.00;;;;;;;5.77;54.44;103749.68;106791;1259;24207;-52
2024/01/22 04:30:43;;;;;;;26.20;19.00;;;;;;;5.78;54.38;103751.64;106345;1264;22646;-52
2024/01/22 04:33:13;;;;;;;25.50;18.90;;;;;;;5.80;54.32;103752.90;106776;1272;25338;-51
2024/01/22 04:35:41;;;;;;;25.70;19.60;;;;;;;5.80;54.30;103755.14;106768;1258;25478;-51
2024/01/22 04:38:08;;;;;;;25.90;20.40;;;;;;;5.80;54.28;103758.11;106053;1256;1003687;-51
2024/01/22 04:40:36;;;;;;;26.50;20.40;;;;;;;5.82;54.36;103754.94;106558;1262;25418;-51
2024/01/22 04:43:03;;;;;;;26.10;20.50;;;;;;;5.86;54.39;103760.30;106812;1272;25338;-51
2024/01/22 04:45:30;;;;;;;27.40;21.00;;;;;;;5.88;54.18;103757.44;106065;1264;1002879;-51
2024/01/22 04:47:58;;;;;;;28.10;20.10;;;;;;;5.87;54.24;103765.35;106852;1259;25369;-51
2024/01/22 04:50:25;;;;;;;30.50;21.90;;;;;;;5.87;54.23;103769.33;106331;1263;25246;-50
2024/01/22 04:52:52;;;;;;;27.70;20.80;;;;;;;5.89;54.25;103769.40;106625;1262;25366;-51
2024/01/22 04:55:19;;;;;;;29.30;20.60;;;;;;;5.90;54.16;103769.96;105889;1270;1002911;-52
2024/01/22 04:57:49;;;;;;;26.20;19.50;;;;;;;5.88;54.02;103771.24;106642;1263;25338;-53
2024/01/22 05:00:17;;;;;;;27.90;20.80;;;;;;;5.84;54.09;103773.46;106830;1260;25418;-52
2024/01/22 05:02:45;;;;;;;26.60;20.80;;;;;;;5.80;53.91;103776.69;106786;1260;25392;-51
2024/01/22 05:05:13;;;;;;;27.20;20.80;;;;;;;5.78;53.95;103776.25;106808;1259;25366;-52
2024/01/22 05:07:40;;;;;;;24.40;19.00;;;;;;;5.79;53.91;103774.91;106691;1259;25370;-52
2024/01/22 05:10:11;;;;;;;27.50;19.30;;;;;;;5.77;53.77;103772.27;105755;1274;1003121;-52
2024/01/22 05:12:38;;;;;;;29.40;20.60;;;;;;;5.73;53.71;103767.73;106812;1259;25364;-52
2024/01/22 05:15:06;;;;;;;25.90;20.00;;;;;;;5.68;53.83;103769.24;106064;1260;1003287;-52
2024/01/22 05:17:34;;;;;;;28.20;21.00;;;;;;;5.64;53.83;103776.34;106720;1259;25356;-52
2024/01/22 05:20:01;;;;;;;26.00;19.80;;;;;;;5.61;53.85;103777.55;106309;1275;25408;-51
2024/01/22 05:22:28;;;;;;;26.70;20.50;;;;;;;5.58;53.82;103774.31;106755;1269;25372;-52
2024/01/22 05:24:55;;;;;;;28.20;20.90;;;;;;;5.56;53.71;103774.70;105934;1262;1002567;-53
2024/01/22 05:27:24;;;;;;;24.90;18.60;;;;;;;5.52;53.78;103780.05;106727;1257;25360;-52
2024/01/22 05:29:51;;;;;;;28.10;19.50;;;;;;;5.51;53.92;103783.61;106862;1261;25449;-52
2024/01/22 05:32:18;;;;;;;28.50;19.70;;;;;;;5.52;54.01;103781.61;106035;1259;1003348;-52
2024/01/22 05:34:45;;;;;;;26.50;18.80;;;;;;;5.54;54.04;103774.26;106721;1257;24200;-52
2024/01/22 05:37:12;;;;;;;25.20;19.20;;;;;;;5.57;54.13;103777.16;106725;1258;25338;-52
2024/01/22 05:39:39;;;;;;;24.80;18.40;;;;;;;5.59;53.93;103782.10;106194;1260;1003241;-50
2024/01/22 05:42:06;;;;;;;29.50;20.30;;;;;;;5.61;53.88;103783.54;106772;1259;25335;-52
2024/01/22 05:44:33;;;;;;;26.20;19.50;;;;;;;5.60;53.90;103780.63;106749;1261;24273;-52
2024/01/22 05:47:01;;;;;;;26.50;18.80;;;;;;;5.62;53.79;103778.44;106109;1267;1003206;-53
2024/01/22 05:49:28;;;;;;;26.30;19.50;;;;;;;5.64;53.85;103785.59;106705;1260;25411;-52
2024/01/22 05:51:56;;;;;;;28.10;19.90;;;;;;;5.62;53.60;103785.86;106814;1259;25418;-52
2024/01/22 05:54:24;;;;;;;26.20;19.20;;;;;;;5.60;53.59;103788.69;105969;1262;1003532;-52
2024/01/22 05:56:52;;;;;;;30.70;21.80;;;;;;;5.57;53.61;103786.64;106941;1256;25366;-52
2024/01/22 05:59:19;;;;;;;28.10;20.00;;;;;;;5.53;53.54;103788.67;106809;1259;25397;-52
2024/01/22 06:01:47;;;;;;;30.50;20.50;;;;;;;5.49;53.70;103792.98;106006;1264;1003510;-52
2024/01/22 06:04:15;;;;;;;29.30;20.40;;;;;;;5.48;53.92;103796.19;106716;1260;25488;-52
2024/01/22 06:06:42;;;;;;;29.20;20.90;;;;;;;5.47;54.03;103797.00;106039;1259;1003085;-52
2024/01/22 06:09:09;;;;;;;30.80;20.20;;;;;;;5.46;53.86;103796.43;106775;1261;25373;-52
2024/01/22 06:11:36;;;;;;;30.20;20.40;;;;;;;5.44;53.94;103802.73;106748;1270;25489;-52
2024/01/22 06:14:04;;;;;;;30.10;20.90;;;;;;;5.44;53.96;103805.63;106782;1260;25412;-51
2024/01/22 06:16:31;;;;;;;28.40;20.30;;;;;;;5.43;53.82;103806.63;106637;1262;25353;-52
2024/01/22 06:18:58;;;;;;;27.50;20.30;;;;;;;5.43;53.95;103803.37;105966;1262;1002405;-52
2024/01/22 06:21:26;;;;;;;28.10;20.30;;;;;;;5.43;53.95;103803.20;106408;1274;25369;-52
2024/01/22 06:23:53;;;;;;;31.30;21.40;;;;;;;5.43;54.02;103807.67;106863;1261;25395;-52
2024/01/22 06:26:22;;;;;;;29.80;20.50;;;;;;;5.45;54.05;103812.24;106844;1259;25328;-52
2024/01/22 06:28:48;;;;;;;28.70;20.80;;;;;;;5.45;54.11;103811.73;106790;1256;22558;-52
2024/01/22 06:31:17;;;;;;;27.30;19.70;;;;;;;5.47;54.13;103814.56;106782;1259;25360;-52
2024/01/22 06:33:44;;;;;;;30.20;20.50;;;;;;;5.49;54.17;103819.35;106840;1259;23700;-52
2024/01/22 06:36:11;;;;;;;32.00;22.20;;;;;;;5.52;54.15;103820.33;106808;1259;22530;-52
2024/01/22 06:38:38;;;;;;;27.70;20.60;;;;;;;5.55;54.27;103820.14;106725;1262;25329;-52
2024/01/22 06:41:11;;;;;;;27.40;19.70;;;;;;;5.57;54.15;103819.53;106631;1259;25523;-52
2024/01/22 06:43:41;;;;;;;25.20;19.10;;;;;;;5.58;53.96;103820.27;106013;1259;1003275;-52
2024/01/22 06:46:07;;;;;;;27.80;20.20;;;;;;;5.58;53.85;103814.44;106797;1259;22725;-52
2024/01/22 06:48:34;;;;;;;26.20;19.90;;;;;;;5.59;53.79;103809.80;106031;1269;1003328;-52
2024/01/22 06:51:02;;;;;;;32.50;20.30;;;;;;;5.58;53.85;103811.68;106462;1271;25416;-52
2024/01/22 06:53:29;;;;;;;28.10;20.20;;;;;;;5.60;53.99;103810.38;106676;1256;22529;-52
2024/01/22 06:55:57;;;;;;;28.70;19.60;;;;;;;5.62;54.03;103804.42;106709;1256;25318;-52
2024/01/22 06:58:24;;;;;;;28.80;21.00;;;;;;;5.66;54.03;103805.14;106677;1262;25366;-52
2024/01/22 07:00:51;;;;;;;30.20;20.40;;;;;;;5.70;53.87;103804.98;105950;1261;1002935;-52
2024/01/22 07:03:20;;;;;;;29.70;20.40;;;;;;;5.73;53.75;103808.92;106768;1261;23869;-52
2024/01/22 07:05:47;;;;;;;28.50;20.80;;;;;;;5.76;53.82;103813.20;106060;1272;1003576;-52
2024/01/22 07:08:15;;;;;;;31.60;21.60;;;;;;;5.81;53.74;103816.36;106520;1278;25406;-51
2024/01/22 07:10:42;;;;;;;31.30;20.90;;;;;;;5.83;53.83;103819.70;106738;1272;25396;-52
2024/01/22 07:13:09;;;;;;;30.80;20.70;;;;;;;5.86;53.77;103822.17;106813;1261;25345;-51
2024/01/22 07:15:36;;;;;;;28.80;21.00;;;;;;;5.90;53.79;103819.79;106776;1262;25363;-52
2024/01/22 07:18:03;;;;;;;29.60;21.60;;;;;;;5.96;53.79;103820.86;106755;1269;25357;-51
2024/01/22 07:20:31;;;;;;;29.80;21.40;;;;;;;5.99;53.72;103826.01;106734;1262;25348;-52
2024/01/22 07:22:58;;;;;;;31.00;20.00;;;;;;;6.03;53.69;103828.63;106734;1259;25799;-52
2024/01/22 07:25:25;;;;;;;26.70;19.70;;;;;;;6.08;53.62;103824.91;106778;1261;22997;-52
2024/01/22 07:27:52;;;;;;;30.10;20.90;;;;;;;6.15;53.62;103822.45;106661;1262;25343;-53
2024/01/22 07:30:19;;;;;;;27.40;20.30;;;;;;;6.21;53.56;103818.40;106795;1259;22534;-52
2024/01/22 07:32:47;;;;;;;33.50;22.20;;;;;;;6.23;53.29;103817.17;106744;1259;25338;-51
2024/01/22 07:35:15;;;;;;;27.90;20.00;;;;;;;6.25;53.23;103821.02;106739;1262;25339;-51
2024/01/22 07:37:44;;;;;;;29.80;20.00;;;;;;;6.26;53.15;103817.63;106656;1262;25332;-52
2024/01/22 07:40:11;;;;;;;27.70;19.60;;;;;;;6.31;53.13;103819.23;106475;1265;22522;-52
2024/01/22 07:42:39;;;;;;;30.50;21.20;;;;;;;6.36;53.01;103825.81;106631;1262;25422;-52
2024/01/22 07:45:09;;;;;;;29.10;20.80;;;;;;;6.36;52.81;103825.33;106656;1262;25351;-51
2024/01/22 07:47:36;;;;;;;28.80;21.00;;;;;;;6.35;52.84;103831.29;105734;1270;1002876;-52
2024/01/22 07:50:06;;;;;;;33.00;22.00;;;;;;;6.33;52.74;103829.66;106598;1272;25401;-52
2024/01/22 07:52:33;;;;;;;29.50;20.70;;;;;;;6.28;52.77;103833.39;105892;1262;1002861;-52
2024/01/22 07:55:01;;;;;;;36.50;21.90;;;;;;;6.24;52.89;103831.17;106520;1259;25370;-52
2024/01/22 07:57:29;;;;;;;31.00;22.50;;;;;;;6.24;53.08;103831.84;106263;1265;25322;-52
2024/01/22 07:59:56;;;;;;;31.60;21.90;;;;;;;6.23;53.08;103830.77;105693;1262;1003442;-52
2024/01/22 08:02:23;;;;;;;29.50;21.10;;;;;;;6.24;53.10;103831.82;106436;1271;25724;-52
2024/01/22 08:04:50;;;;;;;27.50;20.90;;;;;;;6.25;53.17;103834.83;106310;1262;24249;-51
2024/01/22 08:07:19;;;;;;;35.00;22.10;;;;;;;6.29;53.14;103841.38;106303;1278;25331;-51
2024/01/22 08:09:47;;;;;;;35.00;22.60;;;;;;;6.32;53.08;103845.48;106473;1260;23296;-51
2024/01/22 08:12:15;;;;;;;32.40;22.10;;;;;;;6.33;52.96;103843.48;106014;1266;1002978;-52
2024/01/22 08:14:42;;;;;;;35.50;22.30;;;;;;;6.33;52.93;103845.86;106766;1268;25363;-53
2024/01/22 08:17:09;;;;;;;28.70;20.30;;;;;;;6.30;52.97;103845.91;106714;1269;24211;-51
2024/01/22 08:19:37;;;;;;;35.30;24.20;;;;;;;6.27;52.97;103845.42;106726;1260;25408;-51
2024/01/22 08:22:04;;;;;;;34.40;22.50;;;;;;;6.22;53.05;103846.23;106809;1264;25353;-51
2024/01/22 08:24:31;;;;;;;32.50;21.80;;;;;;;6.21;53.24;103845.47;106951;1259;25336;-51
2024/01/22 08:27:00;;;;;;;28.10;21.10;;;;;;;6.24;53.35;103843.39;106793;1272;25481;-51
2024/01/22 08:29:27;;;;;;;31.70;21.70;;;;;;;6.27;53.35;103846.80;106741;1259;25525;-53
2024/01/22 08:31:54;;;;;;;32.50;22.20;;;;;;;6.28;53.53;103845.48;106700;1268;25345;-51
2024/01/22 08:34:21;;;;;;;30.60;21.40;;;;;;;6.34;53.64;103848.48;106124;1261;1002923;-51
2024/01/22 08:36:48;;;;;;;29.90;21.60;;;;;;;6.38;53.63;103851.08;106746;1272;25475;-52
2024/01/22 08:39:18;;;;;;;31.10;21.80;;;;;;;6.41;53.72;103849.33;106723;1272;25943;-53
2024/01/22 08:41:45;;;;;;;29.30;21.40;;;;;;;6.47;53.81;103848.23;106707;1262;25382;-52
2024/01/22 08:44:12;;;;;;;31.50;21.70;;;;;;;6.53;53.66;103845.40;106780;1261;23393;-53
2024/01/22 08:46:39;;;;;;;35.00;24.50;;;;;;;6.59;53.71;103840.80;105826;1275;1003144;-53
2024/01/22 08:49:06;;;;;;;33.90;22.90;;;;;;;6.65;53.80;103845.02;106697;1259;25371;-50
2024/01/22 08:51:34;;;;;;;32.00;22.10;;;;;;;6.71;53.60;103839.95;106769;1272;24366;-52
2024/01/22 08:54:02;;;;;;;35.30;22.70;;;;;;;6.77;53.62;103834.16;106675;1271;24245;-52
2024/01/22 08:56:29;;;;;;;32.50;22.20;;;;;;;6.84;53.60;103827.55;106799;1256;25357;-52
2024/01/22 08:58:57;;;;;;;30.30;21.10;;;;;;;6.91;53.40;103818.90;106728;1262;25450;-53
2024/01/22 09:01:25;;;;;;;30.30;21.50;;;;;;;6.96;53.18;103819.94;105986;1262;1016329;-52
2024/01/22 09:03:52;;;;;;;32.60;22.60;;;;;;;6.92;52.90;103813.23;106145;1259;1002916;-52
2024/01/22 09:06:19;;;;;;;30.40;21.10;;;;;;;6.90;52.92;103816.59;106881;1275;25346;-52
2024/01/22 09:08:46;;;;;;;30.30;20.80;;;;;;;6.91;53.01;103815.77;106623;1259;25339;-52
2024/01/22 09:11:14;;;;;;;30.70;20.40;;;;;;;6.90;53.03;103815.41;106699;1276;25338;-50
2024/01/22 09:13:41;;;;;;;29.50;21.90;;;;;;;6.88;53.10;103817.72;106786;1272;25488;-52
2024/01/22 09:16:14;;;;;;;29.60;20.50;;;;;;;6.86;53.38;103818.15;106761;1260;25356;-52
2024/01/22 09:18:42;;;;;;;28.90;20.90;;;;;;;6.86;53.44;103809.70;106803;1272;22608;-52
2024/01/22 09:21:10;;;;;;;28.30;21.50;;;;;;;6.86;53.66;103797.81;106026;1272;1003187;-52
2024/01/22 09:23:37;;;;;;;31.30;23.00;;;;;;;6.93;53.82;103793.41;106819;1272;25328;-52
2024/01/22 09:26:05;;;;;;;31.60;22.40;;;;;;;7.02;53.88;103788.27;106803;1259;25363;-52
2024/01/22 09:28:32;;;;;;;29.50;21.60;;;;;;;7.11;53.68;103785.90;106819;1259;25366;-52
2024/01/22 09:31:00;;;;;;;30.60;21.80;;;;;;;7.19;53.56;103785.53;106097;1272;1003485;-52
2024/01/22 09:33:27;;;;;;;32.70;22.40;;;;;;;7.24;53.44;103783.17;105706;1271;1002941;-52
2024/01/22 09:35:55;;;;;;;31.30;21.20;;;;;;;7.29;53.17;103782.32;106561;1272;22527;-53
2024/01/22 09:38:22;;;;;;;32.40;22.40;;;;;;;7.31;53.07;103793.11;106518;1275;25330;-52
2024/01/22 09:40:50;;;;;;;33.20;23.00;;;;;;;7.30;52.77;103800.84;106802;1273;25294;-52
2024/01/22 09:43:18;;;;;;;32.60;21.40;;;;;;;7.27;52.95;103796.41;106786;1275;25346;-52
2024/01/22 09:45:47;;;;;;;31.40;21.60;;;;;;;7.26;53.01;103788.59;106825;1272;24276;-52
2024/01/22 09:48:14;;;;;;;33.90;22.00;;;;;;;7.24;52.95;103779.89;106787;1260;22541;-51
2024/01/22 09:50:42;;;;;;;34.40;22.10;;;;;;;7.22;53.11;103781.34;105996;1259;1003648;-51
2024/01/22 09:53:10;;;;;;;30.80;21.00;;;;;;;7.23;53.24;103782.76;106826;1272;25471;-51
2024/01/22 09:55:39;;;;;;;31.30;21.60;;;;;;;7.24;53.34;103781.95;106579;1275;24206;-51
2024/01/22 09:58:08;;;;;;;35.60;21.50;;;;;;;7.27;53.30;103781.73;106741;1260;25338;-51
2024/01/22 10:00:38;;;;;;;30.80;21.00;;;;;;;7.29;53.18;103778.17;106532;1276;22580;-51
2024/01/22 10:03:06;;;;;;;32.50;22.50;;;;;;;7.27;53.06;103769.27;105912;1278;1003051;-51
2024/01/22 10:05:34;;;;;;;30.50;21.60;;;;;;;7.26;53.14;103773.71;106607;1266;25482;-51
2024/01/22 10:08:01;;;;;;;30.40;20.60;;;;;;;7.26;53.24;103773.92;106788;1260;25344;-53
2024/01/22 10:10:28;;;;;;;33.20;22.60;;;;;;;7.28;53.31;103763.81;106822;1275;25402;-52
2024/01/22 10:12:57;;;;;;;34.00;23.40;;;;;;;7.33;53.26;103762.64;106727;1276;25402;-52
2024/01/22 10:15:25;;;;;;;35.60;24.10;;;;;;;7.38;53.31;103765.75;106791;1272;22643;-53
2024/01/22 10:17:53;;;;;;;38.10;24.30;;;;;;;7.41;53.22;103767.44;106779;1278;23896;-53
2024/01/22 10:20:23;;;;;;;35.00;24.70;;;;;;;7.43;53.10;103768.71;106627;1278;25456;-52
2024/01/22 10:22:59;;;;;;;34.90;24.40;;;;;;;7.47;53.17;103774.20;106793;1278;25355;-53
2024/01/22 10:25:27;;;;;;;32.50;24.40;;;;;;;7.52;53.16;103772.85;106782;1271;22644;-53
2024/01/22 10:28:23;;;;;;;32.00;22.90;;;;;;;7.59;53.01;103777.65;106002;1272;1003262;-53
2024/01/22 10:31:03;;;;;;;33.50;23.50;;;;;;;7.64;52.89;103774.54;106285;1278;25485;-53
2024/01/22 10:33:31;;;;;;;34.10;23.60;;;;;;;7.67;52.63;103777.42;106008;1277;22549;-51
2024/01/22 10:36:13;;;;;;;38.50;25.20;;;;;;;7.68;52.65;103780.39;106102;1277;23200;-51
2024/01/22 10:38:40;;;;;;;33.50;23.40;;;;;;;7.71;52.48;103777.55;105389;1277;1002943;-52
2024/01/22 10:41:20;;;;;;;36.10;24.60;;;;;;;7.69;52.33;103772.65;106096;1279;23871;-53
2024/01/22 10:43:49;;;;;;;34.30;24.00;;;;;;;7.65;52.40;103768.19;105230;1277;1003485;-54
2024/01/22 10:46:16;;;;;;;34.60;22.60;;;;;;;7.58;52.34;103765.68;105504;1278;1003020;-53
2024/01/22 10:48:44;;;;;;;34.20;24.80;;;;;;;7.47;52.48;103768.88;106107;1279;22666;-53
2024/01/22 10:51:14;;;;;;;40.90;26.40;;;;;;;7.40;52.87;103772.05;105470;1277;1015755;-52
2024/01/22 10:53:42;;;;;;;39.90;27.90;;;;;;;7.38;53.04;103772.64;105988;1278;25493;-51
2024/01/22 10:56:22;;;;;;;39.40;25.80;;;;;;;7.40;53.10;103766.72;106054;1283;25342;-53
2024/01/22 10:58:49;;;;;;;37.80;27.10;;;;;;;7.45;53.20;103763.43;106032;1283;25425;-51
2024/01/22 11:01:22;;;;;;;35.30;24.80;;;;;;;7.52;53.22;103757.48;106051;1279;25341;-52
2024/01/22 11:03:50;;;;;;;35.10;24.30;;;;;;;7.60;52.99;103754.85;106137;1276;22616;-52
2024/01/22 11:06:21;;;;;;;34.70;24.50;;;;;;;7.62;52.81;103748.19;106240;1278;22547;-52
2024/01/22 11:08:49;;;;;;;33.20;23.10;;;;;;;7.63;52.69;103748.24;106555;1272;25460;-52